Time;durP1;ratioP1;P1;durP2;ratioP2;P2;SDS_P1;SDS_P2;PMS_P1;PMS_P2;Temp;Humidity;BMP_temperature;BMP_pressure;BME280_temperature;BME280_humidity;BME280_pressure;Samples;Min_cycle;Max_cycle;Signal;HPM_P1;HPM_P2
2021/07/27 00:01:15;;;;;;;0.40;0.30;;;17.60;99.90;;;;;;5091510;28;20393;-74
2021/07/27 00:03:41;;;;;;;0.40;0.20;;;17.70;99.90;;;;;;5091721;28;20385;-74
2021/07/27 00:06:08;;;;;;;0.40;0.20;;;17.60;99.90;;;;;;5090986;28;20393;-75
2021/07/27 00:08:35;;;;;;;0.40;0.20;;;17.60;99.90;;;;;;5091418;28;20422;-75
2021/07/27 00:11:02;;;;;;;0.40;0.20;;;17.60;99.90;;;;;;5090636;28;20465;-75
2021/07/27 00:13:28;;;;;;;0.40;0.20;;;17.50;99.90;;;;;;5091576;28;20417;-74
2021/07/27 00:15:53;;;;;;;0.40;0.30;;;17.40;99.90;;;;;;5091758;28;20804;-74
2021/07/27 00:18:19;;;;;;;0.40;0.20;;;17.60;99.90;;;;;;5090935;28;20405;-74
2021/07/27 00:20:45;;;;;;;0.40;0.20;;;17.50;99.90;;;;;;5091319;28;20497;-74
2021/07/27 00:23:11;;;;;;;0.40;0.20;;;17.40;99.90;;;;;;5090818;28;20383;-75
2021/07/27 00:25:38;;;;;;;0.40;0.30;;;17.20;99.90;;;;;;5091474;28;20857;-74
2021/07/27 00:28:04;;;;;;;0.40;0.30;;;17.30;99.90;;;;;;5090762;28;20402;-74
2021/07/27 00:30:30;;;;;;;0.40;0.30;;;17.30;99.90;;;;;;5087522;28;20382;-74
2021/07/27 00:32:56;;;;;;;0.40;0.20;;;17.30;99.90;;;;;;5083846;28;20741;-74
2021/07/27 00:35:22;;;;;;;0.40;0.20;;;17.20;99.90;;;;;;5070307;28;20458;-74
2021/07/27 00:37:57;;;;;;;0.40;0.20;;;17.30;99.90;;;;;;5095248;28;20382;-74
2021/07/27 00:40:23;;;;;;;0.40;0.20;;;17.20;99.90;;;;;;5090621;28;20470;-74
2021/07/27 00:42:49;;;;;;;0.40;0.30;;;17.10;99.90;;;;;;5091102;28;20402;-74
2021/07/27 00:45:16;;;;;;;0.40;0.30;;;17.00;99.90;;;;;;5090566;28;20385;-74
2021/07/27 00:47:42;;;;;;;0.40;0.30;;;17.10;99.90;;;;;;5091167;28;20716;-74
2021/07/27 00:50:10;;;;;;;0.40;0.20;;;17.10;99.90;;;;;;5090325;28;20552;-74
2021/07/27 00:52:39;;;;;;;0.40;0.30;;;17.00;99.90;;;;;;5091218;28;20389;-74
2021/07/27 00:55:07;;;;;;;0.40;0.30;;;17.10;99.90;;;;;;5090340;28;20619;-74
2021/07/27 00:57:32;;;;;;;0.40;0.30;;;17.00;99.90;;;;;;5090660;28;20482;-74
2021/07/27 00:59:58;;;;;;;0.40;0.30;;;16.90;99.90;;;;;;5090866;28;20386;-74
2021/07/27 01:02:24;;;;;;;0.40;0.30;;;17.10;99.90;;;;;;5090121;28;20884;-75
2021/07/27 01:04:50;;;;;;;0.40;0.30;;;17.00;99.90;;;;;;5072792;28;20885;-74
2021/07/27 01:07:15;;;;;;;0.40;0.20;;;16.90;99.90;;;;;;5089920;28;20378;-74
2021/07/27 01:09:41;;;;;;;0.40;0.20;;;16.90;99.90;;;;;;5090695;28;20444;-74
2021/07/27 01:12:07;;;;;;;0.40;0.30;;;16.80;99.90;;;;;;5090184;28;20792;-74
2021/07/27 01:14:33;;;;;;;0.40;0.20;;;16.80;99.90;;;;;;5090814;28;20378;-74
2021/07/27 01:16:59;;;;;;;0.40;0.20;;;16.80;99.90;;;;;;5091080;28;20393;-74
2021/07/27 01:42:04;;;;;;;0.40;0.30;;;16.90;99.90;;;;;;5090190;28;20523;-74
2021/07/27 01:43:53;;;;;;;0.40;0.20;;;16.80;99.90;;;;;;5093879;28;20470;-75
2021/07/27 01:46:23;;;;;;;0.40;0.30;;;16.70;99.90;;;;;;5093766;28;20382;-74
2021/07/27 01:48:50;;;;;;;0.40;0.30;;;16.70;99.90;;;;;;5094324;28;20553;-74
2021/07/27 01:51:17;;;;;;;0.40;0.20;;;16.70;99.90;;;;;;5093658;28;20382;-74
2021/07/27 01:54:08;;;;;;;0.40;0.30;;;16.60;99.90;;;;;;5094092;28;20378;-74
2021/07/27 01:56:30;;;;;;;0.40;0.20;;;16.50;99.90;;;;;;5092558;28;20401;-74
2021/07/27 01:58:57;;;;;;;0.40;0.30;;;16.50;99.90;;;;;;5094102;28;20441;-74
2021/07/27 02:01:27;;;;;;;0.40;0.20;;;16.50;99.90;;;;;;5093415;28;20417;-74
2021/07/27 02:03:55;;;;;;;0.40;0.30;;;16.60;99.90;;;;;;5094175;28;20465;-73
2021/07/27 02:06:21;;;;;;;0.40;0.30;;;16.60;99.90;;;;;;5093267;28;20378;-73
2021/07/27 02:08:46;;;;;;;0.40;0.30;;;16.50;99.90;;;;;;5093787;28;20452;-73
2021/07/27 02:11:18;;;;;;;0.40;0.30;;;16.50;99.90;;;;;;5093271;28;20382;-74
2021/07/27 02:13:55;;;;;;;0.40;0.30;;;16.50;99.90;;;;;;5093896;28;20386;-73
2021/07/27 02:16:20;;;;;;;0.40;0.20;;;16.40;99.90;;;;;;5093023;28;20375;-73
2021/07/27 02:18:46;;;;;;;0.40;0.20;;;16.40;99.90;;;;;;5093852;28;20397;-73
2021/07/27 02:21:12;;;;;;;0.40;0.20;;;16.30;99.90;;;;;;5092615;28;20469;-74
2021/07/27 02:23:38;;;;;;;0.40;0.20;;;16.40;99.90;;;;;;5093622;28;20370;-73
2021/07/27 02:26:04;;;;;;;0.40;0.20;;;16.40;99.90;;;;;;5109153;28;20874;-73
2021/07/27 02:28:33;;;;;;;0.40;0.20;;;16.40;99.90;;;;;;5092908;28;20418;-73
2021/07/27 02:31:01;;;;;;;0.40;0.30;;;16.40;99.90;;;;;;5091512;28;20389;-73
2021/07/27 02:33:28;;;;;;;0.40;0.20;;;16.50;99.90;;;;;;5077437;28;20850;-73
2021/07/27 02:35:54;;;;;;;0.40;0.20;;;16.30;99.90;;;;;;5099135;28;20707;-73
2021/07/27 02:38:20;;;;;;;0.40;0.30;;;16.20;99.90;;;;;;5092574;28;20374;-73
2021/07/27 02:40:49;;;;;;;0.40;0.20;;;16.10;99.90;;;;;;5090687;28;20386;-73
2021/07/27 02:43:14;;;;;;;0.40;0.20;;;16.00;99.90;;;;;;5072438;28;20379;-73
2021/07/27 02:45:40;;;;;;;0.40;0.20;;;16.10;99.90;;;;;;5072926;28;20383;-73
2021/07/27 02:48:06;;;;;;;0.50;0.30;;;16.20;99.90;;;;;;5072530;28;20375;-73
2021/07/27 02:50:35;;;;;;;0.40;0.20;;;16.30;99.90;;;;;;5072278;28;20408;-73
2021/07/27 02:53:01;;;;;;;0.40;0.20;;;16.20;99.90;;;;;;5072635;28;20388;-73
2021/07/27 02:55:26;;;;;;;0.40;0.20;;;16.10;99.90;;;;;;5071573;28;20387;-73
2021/07/27 02:57:52;;;;;;;0.40;0.30;;;16.10;99.90;;;;;;5072997;28;20470;-73
2021/07/27 03:00:18;;;;;;;0.40;0.20;;;16.10;99.90;;;;;;5072036;28;20387;-74
2021/07/27 03:02:45;;;;;;;0.40;0.20;;;16.10;99.90;;;;;;5072748;28;20445;-73
2021/07/27 03:05:13;;;;;;;0.40;0.20;;;16.10;99.90;;;;;;5071962;28;20379;-74
2021/07/27 03:10:21;;;;;;;0.40;0.20;;;16.10;99.90;;;;;;5071828;28;20817;-74
2021/07/27 03:12:51;;;;;;;0.40;0.20;;;16.00;99.90;;;;;;5072398;28;20380;-74
2021/07/27 03:15:19;;;;;;;0.40;0.30;;;15.90;99.90;;;;;;5074656;28;20858;-74
2021/07/27 03:17:45;;;;;;;0.40;0.20;;;15.90;99.90;;;;;;5092700;28;20375;-74
2021/07/27 03:20:14;;;;;;;0.40;0.20;;;15.90;99.90;;;;;;5091560;28;20758;-74
2021/07/27 03:22:42;;;;;;;0.40;0.20;;;15.80;99.90;;;;;;5092561;28;20389;-73
2021/07/27 03:25:10;;;;;;;0.40;0.30;;;15.90;99.90;;;;;;5092281;28;20386;-74
2021/07/27 03:27:39;;;;;;;0.40;0.30;;;15.70;99.90;;;;;;5092001;28;20905;-74
2021/07/27 03:30:05;;;;;;;0.40;0.20;;;15.80;99.90;;;;;;5091982;28;20716;-74
2021/07/27 03:32:37;;;;;;;0.40;0.20;;;15.80;99.90;;;;;;5091438;28;20830;-74
2021/07/27 03:35:04;;;;;;;0.40;0.20;;;15.80;99.90;;;;;;5092342;28;20461;-74
2021/07/27 03:37:33;;;;;;;0.40;0.20;;;15.80;99.90;;;;;;5091918;28;20423;-73
2021/07/27 03:39:59;;;;;;;0.40;0.30;;;15.80;99.90;;;;;;5074253;28;20431;-73
2021/07/27 03:42:25;;;;;;;0.40;0.30;;;15.60;99.90;;;;;;5091591;28;20541;-74
2021/07/27 03:44:55;;;;;;;0.40;0.20;;;15.60;99.90;;;;;;5073774;28;20866;-74
2021/07/27 03:47:20;;;;;;;0.40;0.20;;;15.70;99.90;;;;;;5091244;28;20477;-73
2021/07/27 03:49:46;;;;;;;0.40;0.20;;;15.60;99.90;;;;;;5092052;28;20492;-73
2021/07/27 03:52:12;;;;;;;0.40;0.30;;;15.70;99.90;;;;;;5091276;28;20408;-74
2021/07/27 03:54:38;;;;;;;0.40;0.30;;;15.60;99.90;;;;;;5091715;28;20749;-73
2021/07/27 03:57:04;;;;;;;0.40;0.30;;;15.50;99.90;;;;;;5091960;28;20782;-73
2021/07/27 03:59:31;;;;;;;0.40;0.20;;;15.60;99.90;;;;;;5091212;28;20431;-73
2021/07/27 04:01:56;;;;;;;0.40;0.28;;;15.60;99.90;;;;;;5092051;28;20370;-73
2021/07/27 04:04:22;;;;;;;0.40;0.20;;;15.60;99.90;;;;;;5091554;28;20912;-73
2021/07/27 04:06:48;;;;;;;0.40;0.30;;;15.70;99.90;;;;;;5091244;28;20466;-73
2021/07/27 04:09:14;;;;;;;0.40;0.30;;;15.70;99.90;;;;;;5080643;28;20417;-74
2021/07/27 04:11:40;;;;;;;0.40;0.20;;;15.60;99.90;;;;;;5081281;28;20386;-75
2021/07/27 04:14:06;;;;;;;0.40;0.20;;;15.60;99.90;;;;;;5088674;28;20925;-74
2021/07/27 04:16:32;;;;;;;0.40;0.20;;;15.50;99.90;;;;;;5089324;28;20382;-73
2021/07/27 04:18:59;;;;;;;0.40;0.20;;;15.60;99.90;;;;;;5090223;28;20738;-74
2021/07/27 04:21:25;;;;;;;0.40;0.20;;;15.60;99.90;;;;;;5087661;28;20780;-74
2021/07/27 04:23:51;;;;;;;0.40;0.20;;;15.70;99.90;;;;;;5071228;28;20394;-74
2021/07/27 04:26:18;;;;;;;0.40;0.20;;;15.70;99.90;;;;;;5088469;28;20395;-75
2021/07/27 04:28:44;;;;;;;0.40;0.20;;;15.60;99.90;;;;;;5088876;28;20430;-76
2021/07/27 04:31:10;;;;;;;0.40;0.20;;;15.60;99.90;;;;;;5082724;28;20394;-75
2021/07/27 04:33:37;;;;;;;0.40;0.20;;;15.70;99.90;;;;;;5069023;28;20398;-75
2021/07/27 04:36:04;;;;;;;0.40;0.20;;;15.70;99.90;;;;;;5087016;28;20391;-75
2021/07/27 04:38:29;;;;;;;0.40;0.20;;;15.70;99.90;;;;;;5068734;28;20398;-76
2021/07/27 04:40:56;;;;;;;0.40;0.27;;;15.60;99.90;;;;;;5076737;28;20392;-75
2021/07/27 04:43:21;;;;;;;0.40;0.20;;;15.70;99.90;;;;;;5077969;28;20397;-76
2021/07/27 04:45:47;;;;;;;0.40;0.20;;;15.70;99.90;;;;;;5077981;28;20408;-75
2021/07/27 04:48:13;;;;;;;0.40;0.20;;;15.80;99.90;;;;;;5059440;28;20535;-74
2021/07/27 04:50:39;;;;;;;0.40;0.30;;;15.80;99.90;;;;;;5075919;28;20378;-75
2021/07/27 04:53:08;;;;;;;0.40;0.20;;;15.90;99.90;;;;;;5078954;28;20393;-75
2021/07/27 04:55:33;;;;;;;0.40;0.20;;;15.90;99.90;;;;;;5078233;28;20397;-75
2021/07/27 04:58:00;;;;;;;0.40;0.20;;;15.90;99.90;;;;;;5079252;28;20716;-75
2021/07/27 05:00:26;;;;;;;0.40;0.20;;;16.00;99.90;;;;;;5057350;28;20922;-75
2021/07/27 05:02:57;;;;;;;0.40;0.20;;;16.00;99.90;;;;;;5075709;28;20874;-75
2021/07/27 05:05:23;;;;;;;0.40;0.30;;;16.00;99.90;;;;;;5077210;28;21204;-73
2021/07/27 05:07:50;;;;;;;0.40;0.20;;;16.20;99.90;;;;;;5077894;28;20457;-74
2021/07/27 05:10:19;;;;;;;0.40;0.20;;;16.20;99.90;;;;;;5076014;28;20418;-74
2021/07/27 05:12:45;;;;;;;0.40;0.20;;;16.30;99.90;;;;;;5077479;28;20849;-75
2021/07/27 05:15:12;;;;;;;0.40;0.20;;;16.30;99.90;;;;;;5077378;28;20374;-74
2021/07/27 05:17:38;;;;;;;0.40;0.30;;;16.40;99.90;;;;;;5077840;28;20951;-75
2021/07/27 05:20:05;;;;;;;0.40;0.20;;;16.40;99.90;;;;;;5080151;28;20381;-74
2021/07/27 05:22:34;;;;;;;0.40;0.20;;;16.40;99.90;;;;;;5081193;28;20413;-75
2021/07/27 05:25:00;;;;;;;0.40;0.20;;;16.40;99.90;;;;;;5082146;28;20401;-74
2021/07/27 05:27:27;;;;;;;0.40;0.30;;;16.40;99.90;;;;;;5080335;28;20414;-74
2021/07/27 05:29:54;;;;;;;0.40;0.30;;;16.60;99.90;;;;;;5078187;28;21538;-74
2021/07/27 05:32:20;;;;;;;0.43;0.22;;;16.50;99.90;;;;;;5079141;28;20419;-75
2021/07/27 05:34:46;;;;;;;0.40;0.20;;;16.60;99.90;;;;;;5080385;28;20394;-74
2021/07/27 05:37:11;;;;;;;0.40;0.20;;;16.60;99.90;;;;;;5080110;28;20390;-74
2021/07/27 05:39:37;;;;;;;0.40;0.20;;;16.70;99.90;;;;;;5077966;28;20642;-74
2021/07/27 05:42:03;;;;;;;0.40;0.25;;;16.80;99.90;;;;;;5080206;28;20464;-74
2021/07/27 05:44:29;;;;;;;0.40;0.20;;;16.80;99.90;;;;;;5079456;28;20486;-74
2021/07/27 05:46:56;;;;;;;0.40;0.20;;;16.80;99.90;;;;;;5080116;28;20395;-73
2021/07/27 05:49:23;;;;;;;0.40;0.20;;;16.80;99.90;;;;;;5077908;28;21254;-74
2021/07/27 05:51:52;;;;;;;0.40;0.20;;;17.00;99.90;;;;;;5080149;28;20832;-74
2021/07/27 05:54:21;;;;;;;0.40;0.20;;;17.20;99.90;;;;;;5080255;28;20941;-74
2021/07/27 05:56:47;;;;;;;0.40;0.20;;;17.30;99.90;;;;;;5079479;28;20402;-74
2021/07/27 05:59:14;;;;;;;0.40;0.20;;;17.40;99.90;;;;;;5078454;28;20402;-74
2021/07/27 06:01:40;;;;;;;0.40;0.20;;;17.40;99.90;;;;;;5079865;28;20376;-74
2021/07/27 06:04:06;;;;;;;0.40;0.20;;;17.60;99.90;;;;;;5080172;28;20382;-74
2021/07/27 06:06:32;;;;;;;0.40;0.20;;;17.70;99.90;;;;;;5079572;28;20401;-74
2021/07/27 06:09:06;;;;;;;0.40;0.20;;;17.80;99.90;;;;;;5079271;28;20414;-74
2021/07/27 06:11:32;;;;;;;0.40;0.30;;;17.90;99.90;;;;;;5077138;28;20402;-74
2021/07/27 06:13:58;;;;;;;0.40;0.20;;;18.00;99.90;;;;;;5061323;28;21606;-75
2021/07/27 06:16:24;;;;;;;0.40;0.20;;;18.00;99.90;;;;;;5080243;28;20390;-75
2021/07/27 06:18:50;;;;;;;0.40;0.30;;;18.10;99.90;;;;;;5080917;28;20378;-74
2021/07/27 06:21:15;;;;;;;0.40;0.20;;;18.30;99.90;;;;;;5078671;28;20390;-75
2021/07/27 06:23:41;;;;;;;0.40;0.30;;;18.40;99.90;;;;;;5080178;28;20374;-74
2021/07/27 06:26:07;;;;;;;0.40;0.30;;;18.50;99.90;;;;;;5080003;28;20401;-75
2021/07/27 06:28:36;;;;;;;0.40;0.20;;;18.60;99.90;;;;;;5078052;28;20471;-75
2021/07/27 06:31:11;;;;;;;0.40;0.20;;;18.70;99.90;;;;;;5078132;28;20389;-75
2021/07/27 06:33:38;;;;;;;0.40;0.30;;;18.80;99.90;;;;;;5078755;28;20398;-75
2021/07/27 06:36:04;;;;;;;0.40;0.30;;;18.90;99.90;;;;;;5078711;28;20458;-74
2021/07/27 06:38:29;;;;;;;0.40;0.20;;;19.00;99.90;;;;;;5078154;28;20382;-75
2021/07/27 06:40:55;;;;;;;0.40;0.30;;;19.20;99.90;;;;;;5078934;28;20885;-75
2021/07/27 06:43:21;;;;;;;0.40;0.20;;;19.30;99.90;;;;;;5080528;28;20427;-75
2021/07/27 06:45:56;;;;;;;0.40;0.20;;;19.40;99.90;;;;;;5080402;28;20766;-75
2021/07/27 06:48:22;;;;;;;0.40;0.20;;;19.50;99.90;;;;;;5079034;28;20394;-74
2021/07/27 06:50:48;;;;;;;0.40;0.20;;;19.50;99.90;;;;;;5078472;28;21040;-75
2021/07/27 06:53:14;;;;;;;0.40;0.20;;;19.50;99.90;;;;;;5079976;28;20390;-75
2021/07/27 06:55:39;;;;;;;0.40;0.20;;;19.50;99.90;;;;;;5080045;28;20378;-75
2021/07/27 06:58:05;;;;;;;0.40;0.20;;;19.60;99.90;;;;;;5078862;28;20539;-75
2021/07/27 07:00:31;;;;;;;0.40;0.20;;;19.60;99.90;;;;;;5077930;28;20870;-75
2021/07/27 07:02:56;;;;;;;0.40;0.20;;;19.70;99.90;;;;;;5079779;28;20948;-75
2021/07/27 07:05:22;;;;;;;0.50;0.50;;;19.80;99.90;;;;;;5079409;28;20382;-75
2021/07/27 07:07:48;;;;;;;0.40;0.20;;;19.80;99.90;;;;;;5079280;28;20879;-76
2021/07/27 07:10:14;;;;;;;0.40;0.20;;;19.90;99.90;;;;;;5077701;28;20463;-75
2021/07/27 07:12:40;;;;;;;0.40;0.20;;;19.90;99.90;;;;;;5060899;28;20894;-75
2021/07/27 07:15:06;;;;;;;0.40;0.20;;;19.90;99.90;;;;;;5080318;28;20401;-75
2021/07/27 07:17:32;;;;;;;0.40;0.30;;;20.00;99.90;;;;;;5078938;28;20410;-74
2021/07/27 07:19:57;;;;;;;0.40;0.30;;;20.10;99.90;;;;;;5077924;28;20481;-75
2021/07/27 07:22:24;;;;;;;0.40;0.20;;;20.20;99.90;;;;;;5078945;28;20734;-75
2021/07/27 07:24:51;;;;;;;0.40;0.20;;;20.20;99.90;;;;;;5079826;28;20397;-75
2021/07/27 07:27:17;;;;;;;0.40;0.30;;;20.30;99.90;;;;;;5080788;28;20424;-75
2021/07/27 07:29:43;;;;;;;0.40;0.20;;;20.40;99.90;;;;;;5077283;28;20650;-75
2021/07/27 07:32:09;;;;;;;0.40;0.30;;;20.50;99.90;;;;;;5079263;28;20378;-75
2021/07/27 07:34:35;;;;;;;0.40;0.20;;;20.60;99.90;;;;;;5078191;28;20397;-75
2021/07/27 07:37:03;;;;;;;0.40;0.30;;;20.60;99.90;;;;;;5078172;28;20393;-75
2021/07/27 07:39:30;;;;;;;0.40;0.20;;;20.70;99.90;;;;;;5076895;28;20406;-75
2021/07/27 07:41:58;;;;;;;0.40;0.30;;;20.80;99.90;;;;;;5078571;28;20389;-75
2021/07/27 07:44:24;;;;;;;0.40;0.30;;;20.70;99.90;;;;;;5078400;28;20382;-74
2021/07/27 07:46:50;;;;;;;0.40;0.20;;;20.70;99.90;;;;;;5078589;28;20852;-75
2021/07/27 07:49:16;;;;;;;0.40;0.20;;;20.80;99.90;;;;;;5078343;28;20608;-75
2021/07/27 07:51:46;;;;;;;0.40;0.20;;;20.80;99.90;;;;;;5076703;28;20746;-75
2021/07/27 07:54:13;;;;;;;0.40;0.20;;;20.80;99.90;;;;;;5078685;28;20477;-75
2021/07/27 07:56:41;;;;;;;0.40;0.30;;;20.80;99.90;;;;;;5077062;28;20520;-76
2021/07/27 07:59:07;;;;;;;0.60;0.50;;;20.90;99.90;;;;;;5075154;28;20394;-74
2021/07/27 08:01:32;;;;;;;0.40;0.30;;;21.00;99.90;;;;;;5076705;28;20926;-73
2021/07/27 08:03:58;;;;;;;0.40;0.20;;;20.90;99.90;;;;;;5060811;28;20963;-75
2021/07/27 08:06:25;;;;;;;0.40;0.30;;;21.00;99.90;;;;;;5078288;28;20442;-74
2021/07/27 08:08:51;;;;;;;0.40;0.22;;;20.80;99.90;;;;;;5077730;28;20421;-74
2021/07/27 08:11:17;;;;;;;0.40;0.20;;;21.10;99.90;;;;;;5076158;28;20468;-74
2021/07/27 08:13:42;;;;;;;0.40;0.20;;;21.10;99.90;;;;;;5077449;28;20806;-74
2021/07/27 08:16:09;;;;;;;0.40;0.20;;;21.00;99.90;;;;;;5078470;28;20564;-74
2021/07/27 08:18:35;;;;;;;0.40;0.30;;;21.00;99.90;;;;;;5077762;28;20431;-75
2021/07/27 08:21:00;;;;;;;0.40;0.20;;;21.10;99.90;;;;;;5077533;28;20382;-75
2021/07/27 08:23:26;;;;;;;0.40;0.30;;;21.30;99.90;;;;;;5077829;28;20423;-76
2021/07/27 08:25:52;;;;;;;0.40;0.20;;;21.30;99.90;;;;;;5078106;28;20903;-74
2021/07/27 08:28:17;;;;;;;0.40;0.20;;;21.20;99.90;;;;;;5077899;28;20409;-74
2021/07/27 08:30:43;;;;;;;0.40;0.30;;;21.10;99.90;;;;;;5076357;28;20465;-74
2021/07/27 08:33:09;;;;;;;0.40;0.20;;;21.20;99.90;;;;;;5077974;28;20513;-74
2021/07/27 08:35:35;;;;;;;0.50;0.40;;;21.20;99.90;;;;;;5076995;28;20410;-74
2021/07/27 08:38:00;;;;;;;0.40;0.20;;;21.30;99.90;;;;;;5077497;28;20402;-74
2021/07/27 08:40:28;;;;;;;0.40;0.20;;;21.30;99.90;;;;;;5076678;28;20394;-75
2021/07/27 08:42:56;;;;;;;0.40;0.20;;;21.20;99.90;;;;;;5078258;28;20438;-76
2021/07/27 08:45:22;;;;;;;0.50;0.40;;;21.30;99.90;;;;;;5078352;28;20386;-75
2021/07/27 08:47:48;;;;;;;0.40;0.22;;;21.40;99.90;;;;;;5060208;28;20443;-75
2021/07/27 08:50:15;;;;;;;0.40;0.30;;;21.50;99.90;;;;;;5077215;28;20488;-74
2021/07/27 08:52:41;;;;;;;0.40;0.30;;;21.50;99.90;;;;;;5077813;28;20389;-73
2021/07/27 08:55:08;;;;;;;0.40;0.20;;;21.60;99.90;;;;;;5077842;28;20431;-74
2021/07/27 08:57:33;;;;;;;0.40;0.20;;;21.70;99.90;;;;;;5077848;28;20401;-74
2021/07/27 08:59:59;;;;;;;0.40;0.20;;;21.70;99.90;;;;;;5091871;28;20915;-73
2021/07/27 09:02:29;;;;;;;0.40;0.20;;;21.60;99.90;;;;;;5077736;28;20413;-75
2021/07/27 09:05:11;;;;;;;0.40;0.20;;;21.60;99.90;;;;;;5077329;28;20393;-75
2021/07/27 09:07:37;;;;;;;0.40;0.20;;;21.80;99.90;;;;;;5059109;28;20774;-74
2021/07/27 09:10:19;;;;;;;0.40;0.30;;;21.80;99.90;;;;;;5076747;28;20456;-74
2021/07/27 09:12:51;;;;;;;0.40;0.20;;;22.00;99.90;;;;;;5077827;28;20396;-74
2021/07/27 09:15:19;;;;;;;0.40;0.30;;;22.00;99.90;;;;;;5077451;28;20394;-75
2021/07/27 09:17:55;;;;;;;0.40;0.30;;;22.10;99.90;;;;;;5077761;28;20382;-74
2021/07/27 09:20:39;;;;;;;0.40;0.20;;;22.10;99.90;;;;;;5076084;28;20873;-74
2021/07/27 09:23:06;;;;;;;0.40;0.30;;;22.00;99.90;;;;;;5079370;28;20410;-75
2021/07/27 09:25:34;;;;;;;0.40;0.30;;;22.10;99.90;;;;;;5078069;28;20494;-74
2021/07/27 09:28:05;;;;;;;0.40;0.30;;;22.20;99.90;;;;;;5059561;28;20513;-76
2021/07/27 09:30:32;;;;;;;0.40;0.30;;;22.40;99.90;;;;;;5075270;28;20755;-74
2021/07/27 09:32:58;;;;;;;0.40;0.20;;;22.50;99.90;;;;;;5078420;28;20493;-74
2021/07/27 09:35:25;;;;;;;0.40;0.20;;;22.60;99.90;;;;;;5079083;28;20394;-73
2021/07/27 09:38:09;;;;;;;0.40;0.30;;;22.30;99.90;;;;;;5077997;28;20386;-74
2021/07/27 09:40:45;;;;;;;0.40;0.20;;;22.60;99.90;;;;;;5075766;28;20382;-76
2021/07/27 09:43:11;;;;;;;0.40;0.20;;;22.70;99.90;;;;;;5078765;28;20409;-75
2021/07/27 09:45:37;;;;;;;0.40;0.30;;;22.70;99.90;;;;;;5078070;28;21047;-74
2021/07/27 09:48:03;;;;;;;0.40;0.20;;;22.80;99.90;;;;;;5077732;28;20378;-73
2021/07/27 09:50:29;;;;;;;0.40;0.30;;;22.80;99.90;;;;;;5076670;28;20416;-74
2021/07/27 09:52:55;;;;;;;0.40;0.30;;;22.90;99.90;;;;;;5077930;28;20397;-74
2021/07/27 09:55:25;;;;;;;0.40;0.30;;;22.90;99.90;;;;;;5078664;28;20397;-74
2021/07/27 09:57:52;;;;;;;0.40;0.20;;;23.20;99.90;;;;;;5077980;28;20763;-75
2021/07/27 10:00:17;;;;;;;0.40;0.20;;;23.10;99.90;;;;;;5075575;28;20418;-75
2021/07/27 10:02:47;;;;;;;0.40;0.20;;;23.20;99.90;;;;;;5077213;28;22019;-74
2021/07/27 10:05:20;;;;;;;0.40;0.20;;;23.30;99.90;;;;;;5080525;28;20382;-77
2021/07/27 10:07:52;;;;;;;0.40;0.20;;;23.60;99.90;;;;;;5080325;28;20870;-74
2021/07/27 10:10:18;;;;;;;0.40;0.30;;;23.90;98.80;;;;;;5080063;28;20731;-75
2021/07/27 10:12:43;;;;;;;0.40;0.30;;;23.80;98.70;;;;;;5079977;28;20382;-75
2021/07/27 10:15:11;;;;;;;0.40;0.30;;;23.80;98.90;;;;;;5079733;28;20386;-74
2021/07/27 10:17:53;;;;;;;0.40;0.30;;;23.90;99.30;;;;;;5080447;28;20390;-73
2021/07/27 10:20:27;;;;;;;0.40;0.30;;;23.90;99.60;;;;;;5080200;28;20390;-74
2021/07/27 10:22:53;;;;;;;0.40;0.20;;;23.80;99.10;;;;;;5081177;28;20731;-74
2021/07/27 10:25:24;;;;;;;0.40;0.30;;;23.80;99.20;;;;;;5081667;28;20401;-74
2021/07/27 10:27:52;;;;;;;0.40;0.20;;;23.80;99.30;;;;;;5080619;28;20413;-74
2021/07/27 10:30:31;;;;;;;0.40;0.30;;;23.70;99.90;;;;;;5060678;28;20414;-74
2021/07/27 10:32:57;;;;;;;0.40;0.27;;;23.90;99.90;;;;;;5080339;28;20893;-75
2021/07/27 10:35:33;;;;;;;0.40;0.30;;;23.80;99.10;;;;;;5081768;28;20468;-75
2021/07/27 10:38:13;;;;;;;0.40;0.20;;;23.40;98.20;;;;;;5080950;28;20386;-74
2021/07/27 10:40:42;;;;;;;0.40;0.20;;;24.10;99.40;;;;;;5078928;28;20394;-75
2021/07/27 10:43:09;;;;;;;0.40;0.20;;;24.30;98.40;;;;;;5081050;28;20437;-73
2021/07/27 10:45:35;;;;;;;0.40;0.20;;;24.40;98.10;;;;;;5079937;28;20370;-75
2021/07/27 10:48:01;;;;;;;0.40;0.30;;;24.40;97.70;;;;;;5080142;28;21559;-75
2021/07/27 10:50:32;;;;;;;0.40;0.30;;;24.20;97.00;;;;;;5061404;28;20501;-74
2021/07/27 10:53:02;;;;;;;0.40;0.30;;;24.40;99.00;;;;;;5062523;28;20396;-74
2021/07/27 10:55:29;;;;;;;0.40;0.30;;;24.40;98.40;;;;;;5081700;28;20382;-74
2021/07/27 10:57:56;;;;;;;0.40;0.20;;;24.50;99.20;;;;;;5080137;28;21141;-74
2021/07/27 11:00:32;;;;;;;0.40;0.20;;;24.50;96.30;;;;;;5079097;28;20466;-76
2021/07/27 11:02:59;;;;;;;0.40;0.20;;;24.60;96.10;;;;;;5080052;28;20890;-74
2021/07/27 11:05:29;;;;;;;0.40;0.20;;;24.50;97.60;;;;;;5080831;28;20401;-74
2021/07/27 11:07:55;;;;;;;0.40;0.30;;;24.40;96.90;;;;;;5079879;28;20378;-75
2021/07/27 11:10:22;;;;;;;0.40;0.30;;;24.50;97.50;;;;;;5079250;28;20397;-74
2021/07/27 11:12:49;;;;;;;0.40;0.30;;;24.80;96.90;;;;;;5079338;28;21041;-75
2021/07/27 11:15:22;;;;;;;0.40;0.30;;;25.00;96.30;;;;;;5080020;28;20375;-74
2021/07/27 11:17:55;;;;;;;0.40;0.30;;;24.80;98.40;;;;;;5079556;28;20382;-74
2021/07/27 11:20:25;;;;;;;0.40;0.30;;;24.80;96.20;;;;;;5079043;28;20515;-74
2021/07/27 11:22:57;;;;;;;0.40;0.30;;;24.80;95.80;;;;;;5079681;28;20916;-74
2021/07/27 11:25:25;;;;;;;0.40;0.30;;;25.00;96.10;;;;;;5080169;28;20390;-74
2021/07/27 11:27:52;;;;;;;0.40;0.20;;;25.10;95.90;;;;;;5079563;28;20494;-74
2021/07/27 11:30:20;;;;;;;0.40;0.20;;;25.00;96.80;;;;;;5078074;28;20495;-73
2021/07/27 11:32:47;;;;;;;0.40;0.20;;;24.40;96.00;;;;;;5079450;28;20487;-74
2021/07/27 11:35:14;;;;;;;0.40;0.30;;;24.60;97.10;;;;;;5080394;28;20378;-73
2021/07/27 11:37:42;;;;;;;0.40;0.30;;;24.70;96.30;;;;;;5079052;28;20420;-73
2021/07/27 11:40:20;;;;;;;0.40;0.20;;;24.30;96.20;;;;;;5078724;28;20381;-73
2021/07/27 11:42:45;;;;;;;0.40;0.20;;;24.60;97.10;;;;;;5078908;28;20901;-73
2021/07/27 11:45:22;;;;;;;0.40;0.30;;;24.70;97.80;;;;;;5079928;28;20382;-75
2021/07/27 11:47:48;;;;;;;0.40;0.30;;;24.70;96.20;;;;;;5079219;28;20390;-73
2021/07/27 11:50:25;;;;;;;0.40;0.20;;;24.50;95.80;;;;;;5078471;28;20430;-73
2021/07/27 11:52:56;;;;;;;0.40;0.30;;;24.50;95.80;;;;;;5060200;28;20391;-74
2021/07/27 11:55:28;;;;;;;0.40;0.30;;;24.70;95.80;;;;;;5079144;28;20920;-74
2021/07/27 11:57:53;;;;;;;0.40;0.20;;;24.90;95.20;;;;;;5078685;28;20852;-74
2021/07/27 12:00:19;;;;;;;0.40;0.20;;;24.90;94.40;;;;;;5077554;28;20417;-75
2021/07/27 12:02:45;;;;;;;0.40;0.30;;;24.80;95.50;;;;;;5078482;28;20441;-73
2021/07/27 12:05:11;;;;;;;0.80;0.50;;;24.70;95.30;;;;;;5061686;28;20381;-74
2021/07/27 12:07:40;;;;;;;0.40;0.30;;;24.50;96.10;;;;;;5078871;28;20381;-75
2021/07/27 12:10:08;;;;;;;0.40;0.30;;;24.00;96.50;;;;;;5077945;28;20408;-73
2021/07/27 12:12:34;;;;;;;0.40;0.20;;;24.00;97.50;;;;;;5060903;28;20443;-73
2021/07/27 12:15:00;;;;;;;0.40;0.20;;;24.20;96.30;;;;;;5078467;28;20370;-74
2021/07/27 12:17:25;;;;;;;0.40;0.20;;;24.20;97.30;;;;;;5078309;28;20378;-74
2021/07/27 12:19:51;;;;;;;0.40;0.20;;;24.20;96.90;;;;;;5058981;28;20417;-74
2021/07/27 12:22:17;;;;;;;0.40;0.20;;;24.40;96.50;;;;;;5079303;28;20386;-73
2021/07/27 12:24:43;;;;;;;0.40;0.30;;;24.40;97.30;;;;;;5079075;28;20390;-73
2021/07/27 12:27:09;;;;;;;0.40;0.30;;;24.50;97.00;;;;;;5078692;28;20484;-74
2021/07/27 12:29:35;;;;;;;0.40;0.30;;;24.60;96.70;;;;;;5077094;28;20871;-74
2021/07/27 12:32:00;;;;;;;0.40;0.30;;;24.60;97.50;;;;;;5077868;28;20390;-74
2021/07/27 12:34:26;;;;;;;0.40;0.20;;;24.60;98.40;;;;;;5079530;28;20463;-73
2021/07/27 12:36:54;;;;;;;0.40;0.20;;;24.70;98.50;;;;;;5078953;28;20382;-75
2021/07/27 12:39:19;;;;;;;0.40;0.30;;;24.60;96.00;;;;;;5059028;28;20865;-74
2021/07/27 12:41:45;;;;;;;0.40;0.22;;;24.70;97.60;;;;;;5078034;28;20394;-76
2021/07/27 12:44:13;;;;;;;0.40;0.20;;;24.70;98.10;;;;;;5060870;28;20389;-75
2021/07/27 12:46:39;;;;;;;0.40;0.30;;;24.50;98.80;;;;;;5060388;28;21007;-75
2021/07/27 12:49:05;;;;;;;0.40;0.30;;;24.70;99.90;;;;;;5077011;28;20922;-74
2021/07/27 12:51:30;;;;;;;0.40;0.20;;;25.10;98.70;;;;;;5078636;28;20524;-75
2021/07/27 12:53:56;;;;;;;0.40;0.30;;;25.20;97.60;;;;;;5078515;28;20378;-75
2021/07/27 12:56:21;;;;;;;0.40;0.30;;;25.40;95.50;;;;;;5079269;28;20520;-74
2021/07/27 12:58:47;;;;;;;0.40;0.30;;;25.40;97.60;;;;;;5078176;28;20421;-75
2021/07/27 13:01:13;;;;;;;0.40;0.20;;;25.00;97.00;;;;;;5076600;28;20382;-76
2021/07/27 13:03:39;;;;;;;0.40;0.20;;;25.00;95.90;;;;;;5078377;28;20382;-75
2021/07/27 13:06:05;;;;;;;0.40;0.30;;;25.30;93.70;;;;;;5078620;28;20381;-74
2021/07/27 13:08:34;;;;;;;0.40;0.20;;;25.80;95.20;;;;;;5078964;28;20421;-74
2021/07/27 13:10:59;;;;;;;0.40;0.20;;;26.10;95.40;;;;;;5076459;28;20429;-74
2021/07/27 13:13:25;;;;;;;0.40;0.20;;;26.20;94.00;;;;;;5078610;28;20386;-74